Meknes, Morocco
Current Conditions -  °F | °C
As of 5:00 AM on Friday 31 Oct 2014 (Local Time) from GMFM Reporting Station
Clear Clear  
Wind Chill: 16°   Ceiling: Unl
Heat Index: 16°   Visibility: 6mi
Dew Point:   Wind: 6mph
Humidity: 42%   Direction: 130°SE
Pressure: 30.06"   Gusts: NA
Location:  33.9°N, 5.56°W
Report Text: GMFM 310400Z 13005KT CAVOK 16/03 Q1018 NOSIG
Loading
Personal Weather Stations






























Interactive Weather Map
Tropical Storm Tracking
New forecast layout! Learn more

10-Day Weather Forecast

Advertisements
Track Severe Weather on mobile